createdAt,value
2018-10-12T00:01:42.813Z,3.27
2018-10-12T00:04:11.192Z,3.40
2018-10-12T00:06:39.745Z,3.37
2018-10-12T00:09:09.479Z,3.23
2018-10-12T00:11:38.038Z,3.60
2018-10-12T00:14:06.433Z,3.43
2018-10-12T00:16:34.832Z,3.07
2018-10-12T00:19:03.235Z,3.07
2018-10-12T00:21:31.743Z,3.30
2018-10-12T00:24:00.130Z,3.17
2018-10-12T00:26:28.581Z,3.40
2018-10-12T00:28:56.940Z,2.63
2018-10-12T00:31:25.337Z,2.93
2018-10-12T00:33:53.787Z,3.00
2018-10-12T00:36:22.213Z,2.90
2018-10-12T00:38:50.700Z,3.00
2018-10-12T00:41:19.192Z,2.90
2018-10-12T00:43:47.630Z,3.63
2018-10-12T00:46:16.204Z,3.30
2018-10-12T00:48:44.709Z,3.10
2018-10-12T00:51:13.182Z,3.30
2018-10-12T00:53:41.649Z,3.00
2018-10-12T00:56:10.495Z,2.73
2018-10-12T00:58:38.933Z,2.63
2018-10-12T01:01:07.372Z,3.20
2018-10-12T01:03:35.871Z,3.50
2018-10-12T01:06:04.301Z,3.10
2018-10-12T01:08:32.774Z,2.67
2018-10-12T01:11:01.233Z,2.97
2018-10-12T01:13:29.738Z,2.53
2018-10-12T01:15:58.181Z,2.80
2018-10-12T01:18:26.628Z,2.77
2018-10-12T01:20:55.099Z,2.53
2018-10-12T01:23:23.564Z,2.83
2018-10-12T01:25:52.000Z,2.63
2018-10-12T01:28:20.608Z,2.40
2018-10-12T01:30:49.124Z,2.40
2018-10-12T01:33:17.610Z,2.50
2018-10-12T01:35:46.070Z,2.57
2018-10-12T01:38:14.541Z,2.30
2018-10-12T01:40:43.006Z,2.13
2018-10-12T01:43:11.469Z,2.30
2018-10-12T01:45:39.948Z,2.90
2018-10-12T01:48:08.427Z,2.40
2018-10-12T01:50:36.882Z,2.77
2018-10-12T01:53:05.605Z,3.17
2018-10-12T01:55:34.121Z,2.50
2018-10-12T01:58:02.660Z,2.30
2018-10-12T02:00:31.129Z,2.30
2018-10-12T02:02:59.549Z,2.43
2018-10-12T02:05:28.001Z,3.47
2018-10-12T02:07:56.461Z,2.73
2018-10-12T02:10:24.953Z,4.57
2018-10-12T02:12:53.410Z,2.63
2018-10-12T02:15:21.901Z,3.67
2018-10-12T02:17:50.361Z,2.40
2018-10-12T02:20:18.821Z,3.83
2018-10-12T02:22:47.277Z,2.60
2018-10-12T02:25:15.716Z,5.60
2018-10-12T02:27:44.161Z,7.97
2018-10-12T02:30:12.841Z,3.83
2018-10-12T02:32:41.277Z,3.70
2018-10-12T02:35:09.717Z,2.60
2018-10-12T02:37:38.163Z,2.77
2018-10-12T02:40:06.622Z,3.80
2018-10-12T02:42:35.077Z,2.77
2018-10-12T02:45:03.583Z,2.67
2018-10-12T02:47:32.108Z,3.77
2018-10-12T02:50:00.615Z,2.83
2018-10-12T02:52:29.072Z,4.93
2018-10-12T02:54:57.508Z,2.37
2018-10-12T02:57:25.941Z,3.30
2018-10-12T02:59:55.425Z,3.40
2018-10-12T03:02:23.849Z,3.90
2018-10-12T03:04:52.364Z,3.93
2018-10-12T03:07:20.850Z,4.20
2018-10-12T03:09:49.505Z,6.13
2018-10-12T03:12:17.941Z,4.90
2018-10-12T03:14:46.432Z,3.70
2018-10-12T03:17:14.956Z,3.47
2018-10-12T03:19:43.456Z,2.87
2018-10-12T03:22:12.278Z,2.87
2018-10-12T03:24:40.736Z,3.20
2018-10-12T03:27:09.263Z,5.03
2018-10-12T03:29:37.748Z,2.13
2018-10-12T03:32:06.352Z,2.83
2018-10-12T03:34:34.952Z,5.73
2018-10-12T03:37:03.467Z,4.10
2018-10-12T03:39:31.924Z,2.10
2018-10-12T03:42:00.431Z,3.27
2018-10-12T03:44:28.894Z,3.33
2018-10-12T03:46:57.348Z,2.37
2018-10-12T03:49:25.783Z,2.57
2018-10-12T03:51:54.289Z,3.83
2018-10-12T03:54:22.733Z,3.97
2018-10-12T03:56:51.186Z,4.70
2018-10-12T03:59:19.651Z,5.67
2018-10-12T04:01:48.167Z,8.67
2018-10-12T04:04:16.650Z,2.73
2018-10-12T04:06:45.164Z,5.40
2018-10-12T04:09:13.651Z,2.20
2018-10-12T04:11:42.122Z,3.33
2018-10-12T04:14:10.634Z,2.70
2018-10-12T04:16:39.154Z,3.93
2018-10-12T04:19:08.245Z,3.20
2018-10-12T04:21:36.724Z,5.90
2018-10-12T04:24:05.208Z,3.03
2018-10-12T04:26:33.690Z,6.10
2018-10-12T04:29:02.357Z,2.83
2018-10-12T04:31:30.817Z,4.20
2018-10-12T04:33:59.486Z,4.23
2018-10-12T04:36:28.005Z,4.10
2018-10-12T04:39:07.633Z,3.27
2018-10-12T04:41:36.139Z,3.43
2018-10-12T04:44:04.592Z,4.17
2018-10-12T04:46:42.293Z,3.97
2018-10-12T04:49:12.698Z,5.90
2018-10-12T04:51:48.628Z,4.50
2018-10-12T04:54:17.341Z,5.63
2018-10-12T04:56:46.413Z,5.53
2018-10-12T04:59:14.896Z,6.07
2018-10-12T05:01:43.488Z,7.77
2018-10-12T05:04:12.192Z,4.23
2018-10-12T05:06:40.716Z,3.67
2018-10-12T05:09:10.375Z,4.43
2018-10-12T05:11:39.173Z,5.07
2018-10-12T05:14:07.851Z,3.33
2018-10-12T05:16:36.629Z,5.50
2018-10-12T05:19:05.232Z,4.43
2018-10-12T05:21:33.869Z,6.70
2018-10-12T05:24:02.608Z,5.67
2018-10-12T05:26:31.133Z,5.63
2018-10-12T05:28:59.663Z,5.73
2018-10-12T05:31:28.145Z,9.50
2018-10-12T05:33:56.605Z,8.40
2018-10-12T05:36:25.275Z,8.47
2018-10-12T05:38:53.727Z,7.87
2018-10-12T05:41:22.158Z,10.63
2018-10-12T05:43:50.801Z,11.63
2018-10-12T05:46:19.192Z,9.27
2018-10-12T05:48:58.912Z,7.27
2018-10-12T05:51:27.400Z,13.87
2018-10-12T05:53:55.890Z,8.27
2018-10-12T05:56:27.933Z,8.27
2018-10-12T05:58:56.758Z,9.87
2018-10-12T06:01:25.389Z,8.77
2018-10-12T06:03:53.818Z,8.77
2018-10-12T06:06:22.260Z,7.93
2018-10-12T06:08:50.704Z,6.07
2018-10-12T06:11:19.198Z,7.13
2018-10-12T06:13:47.755Z,7.03
2018-10-12T06:16:16.157Z,9.80
2018-10-12T06:18:44.583Z,7.67
2018-10-12T06:21:13.085Z,6.00
2018-10-12T06:23:41.496Z,6.30
2018-10-12T06:26:09.978Z,5.37
2018-10-12T06:28:38.407Z,8.00
2018-10-12T06:31:07.786Z,7.17
2018-10-12T06:33:36.464Z,7.07
2018-10-12T06:36:04.921Z,5.97
2018-10-12T06:38:33.601Z,6.57
2018-10-12T06:41:02.220Z,5.83
2018-10-12T06:43:30.586Z,11.23
2018-10-12T06:45:59.192Z,9.83
2018-10-12T06:48:27.674Z,6.67
2018-10-12T06:50:56.120Z,5.50
2018-10-12T06:53:24.576Z,6.27
2018-10-12T06:55:53.056Z,7.17
2018-10-12T06:58:21.570Z,4.20
2018-10-12T07:00:50.005Z,4.30
2018-10-12T07:03:18.588Z,5.90
2018-10-12T07:05:47.074Z,5.37
2018-10-12T07:08:16.046Z,6.70
2018-10-12T07:10:44.521Z,6.63
2018-10-12T07:13:12.977Z,5.13
2018-10-12T07:15:41.444Z,6.13
2018-10-12T07:18:09.973Z,4.60
2018-10-12T07:20:38.460Z,4.23
2018-10-12T07:23:07.324Z,3.73
2018-10-12T07:25:36.416Z,4.23
2018-10-12T07:28:04.884Z,4.27
2018-10-12T07:30:33.334Z,3.37
2018-10-12T07:33:01.804Z,3.90
2018-10-12T07:35:30.271Z,7.50
2018-10-12T07:37:58.702Z,5.13
2018-10-12T07:40:27.280Z,4.07
2018-10-12T07:42:55.763Z,3.67
2018-10-12T07:45:24.234Z,4.00
2018-10-12T07:47:52.708Z,4.20
2018-10-12T07:50:21.173Z,3.50
2018-10-12T07:52:49.687Z,5.50
2018-10-12T07:55:18.159Z,4.17
2018-10-12T07:57:46.618Z,5.10
2018-10-12T08:00:15.167Z,3.50
2018-10-12T08:02:43.614Z,4.27
2018-10-12T08:05:12.113Z,3.30
2018-10-12T08:07:40.553Z,3.13
2018-10-12T08:10:09.080Z,3.37
2018-10-12T08:12:37.567Z,3.67
2018-10-12T08:15:06.057Z,4.03
2018-10-12T08:17:34.879Z,4.10
2018-10-12T08:20:04.572Z,5.43
2018-10-12T08:22:33.369Z,4.40
2018-10-12T08:25:01.867Z,2.63
2018-10-12T08:27:30.331Z,3.57
2018-10-12T08:29:59.089Z,4.70
2018-10-12T08:32:27.625Z,2.47
2018-10-12T08:34:56.099Z,3.27
2018-10-12T08:37:24.589Z,3.37
2018-10-12T08:39:53.056Z,2.90
2018-10-12T08:42:21.607Z,2.93
2018-10-12T08:44:50.114Z,3.17
2018-10-12T08:47:18.760Z,2.63
2018-10-12T08:49:47.259Z,2.20
2018-10-12T08:52:15.722Z,4.13
2018-10-12T08:54:44.205Z,3.83
2018-10-12T08:57:12.668Z,3.50
2018-10-12T08:59:41.156Z,4.20
2018-10-12T09:02:09.641Z,2.97
2018-10-12T09:04:38.092Z,3.50
2018-10-12T09:07:06.834Z,2.30
2018-10-12T09:09:35.356Z,3.57
2018-10-12T09:12:03.804Z,2.47
2018-10-12T09:14:32.273Z,4.20
2018-10-12T09:17:00.805Z,3.50
2018-10-12T09:19:29.258Z,3.97
2018-10-12T09:21:57.756Z,3.47
2018-10-12T09:24:26.166Z,3.50
2018-10-12T09:26:54.602Z,3.57
2018-10-12T09:29:23.022Z,2.57
2018-10-12T09:31:51.558Z,2.80
2018-10-12T09:34:20.008Z,2.60
2018-10-12T09:36:48.518Z,3.77
2018-10-12T09:39:17.234Z,3.80
2018-10-12T09:41:45.660Z,2.90
2018-10-12T09:44:14.205Z,4.07
2018-10-12T09:46:42.694Z,3.00
2018-10-12T09:49:11.169Z,2.07
2018-10-12T09:51:39.623Z,2.20
2018-10-12T09:54:08.847Z,2.47
2018-10-12T09:56:37.285Z,3.90
2018-10-12T09:59:05.983Z,2.70
2018-10-12T10:01:39.733Z,2.20
2018-10-12T10:04:13.561Z,2.67
2018-10-12T10:06:42.065Z,3.17
2018-10-12T10:09:10.504Z,3.20
2018-10-12T10:11:38.932Z,2.87
2018-10-12T10:14:07.359Z,1.90
2018-10-12T10:16:35.799Z,2.83
2018-10-12T10:19:04.263Z,2.27
2018-10-12T10:21:32.724Z,2.73
2018-10-12T10:24:01.150Z,2.77
2018-10-12T10:26:29.577Z,2.83
2018-10-12T10:28:58.028Z,4.50
2018-10-12T10:31:26.470Z,2.20
2018-10-12T10:33:54.889Z,2.63
2018-10-12T10:36:23.364Z,2.30
2018-10-12T10:38:51.813Z,2.23
2018-10-12T10:41:20.232Z,2.27
2018-10-12T10:43:49.143Z,2.07
2018-10-12T10:46:17.816Z,3.40
2018-10-12T10:48:46.216Z,2.63
2018-10-12T10:51:15.009Z,3.63
2018-10-12T10:53:43.528Z,2.10
2018-10-12T10:56:11.921Z,2.10
2018-10-12T10:58:40.376Z,1.93
2018-10-12T11:01:08.860Z,2.63
2018-10-12T11:03:37.294Z,2.13
2018-10-12T11:06:05.971Z,2.90
2018-10-12T11:08:34.409Z,2.00
2018-10-12T11:11:02.853Z,3.47
2018-10-12T11:13:31.298Z,2.93
2018-10-12T11:15:59.725Z,3.20
2018-10-12T11:18:28.181Z,2.10
2018-10-12T11:20:56.686Z,2.73
2018-10-12T11:23:25.119Z,2.87
2018-10-12T11:25:53.545Z,2.30
2018-10-12T11:28:22.029Z,2.40
2018-10-12T11:30:50.497Z,1.80
2018-10-12T11:33:18.908Z,2.20
2018-10-12T11:35:47.397Z,3.03
2018-10-12T11:38:16.740Z,2.43
2018-10-12T11:40:45.198Z,2.43
2018-10-12T11:43:35.657Z,2.13
2018-10-12T11:46:04.359Z,2.43
2018-10-12T11:48:33.080Z,3.87
2018-10-12T11:51:01.919Z,4.23
2018-10-12T11:53:30.462Z,2.43
2018-10-12T11:55:58.915Z,2.60
2018-10-12T11:58:27.424Z,2.67
2018-10-12T12:00:55.937Z,3.57
2018-10-12T12:03:24.433Z,2.60
2018-10-12T12:05:52.933Z,2.90
2018-10-12T12:08:21.389Z,3.20
2018-10-12T12:10:49.857Z,2.43
2018-10-12T12:13:18.359Z,2.83
2018-10-12T12:15:46.782Z,2.80
2018-10-12T12:18:15.317Z,4.13
2018-10-12T12:20:43.793Z,4.07
2018-10-12T12:23:12.402Z,2.33
2018-10-12T12:25:40.867Z,3.73
2018-10-12T12:28:09.460Z,2.80
2018-10-12T12:30:37.916Z,2.90
2018-10-12T12:33:06.355Z,2.13
2018-10-12T12:35:35.065Z,2.30
2018-10-12T12:38:03.302Z,2.27
2018-10-12T12:40:31.804Z,2.73
2018-10-12T12:43:00.275Z,2.30
2018-10-12T12:45:28.698Z,3.13
2018-10-12T12:47:57.213Z,2.50
2018-10-12T12:50:25.828Z,3.13
2018-10-12T12:52:54.271Z,2.83
2018-10-12T12:55:22.725Z,3.07
2018-10-12T12:57:51.227Z,4.10
2018-10-12T13:00:19.734Z,3.90
2018-10-12T13:02:48.133Z,2.93
2018-10-12T13:05:16.595Z,2.17
2018-10-12T13:07:45.029Z,2.20
2018-10-12T13:10:13.569Z,3.20
2018-10-12T13:12:42.039Z,2.87
2018-10-12T13:15:10.466Z,4.03
2018-10-12T13:17:38.925Z,2.67
2018-10-12T13:20:07.644Z,3.47
2018-10-12T13:22:36.081Z,2.23
2018-10-12T13:25:04.528Z,2.80
2018-10-12T13:27:32.988Z,3.40
2018-10-12T13:30:01.424Z,2.57
2018-10-12T13:32:29.888Z,2.97
2018-10-12T13:34:58.387Z,3.50
2018-10-12T13:37:26.887Z,2.23
2018-10-12T13:39:55.367Z,3.53
2018-10-12T13:42:23.845Z,3.30
2018-10-12T13:44:52.340Z,2.37
2018-10-12T13:47:20.925Z,1.60
2018-10-12T13:49:49.433Z,3.20
2018-10-12T13:52:18.033Z,2.03
2018-10-12T13:54:46.488Z,3.50
2018-10-12T13:57:15.051Z,2.40
2018-10-12T13:59:43.510Z,2.20
2018-10-12T14:02:11.980Z,2.00
2018-10-12T14:04:40.440Z,4.00
2018-10-12T14:07:09.122Z,3.17
2018-10-12T14:09:37.595Z,2.03
2018-10-12T14:12:06.048Z,2.33
2018-10-12T14:14:34.497Z,2.20
2018-10-12T14:17:02.992Z,2.13
2018-10-12T14:19:31.576Z,2.43
2018-10-12T14:21:59.994Z,1.97
2018-10-12T14:24:28.490Z,2.93
2018-10-12T14:26:56.969Z,2.90
2018-10-12T14:29:25.477Z,1.70
2018-10-12T14:31:53.898Z,2.13
2018-10-12T14:34:22.421Z,3.50
2018-10-12T14:36:50.972Z,2.10
2018-10-12T14:39:19.408Z,2.10
2018-10-12T14:41:48.088Z,3.50
2018-10-12T14:44:16.674Z,2.83
2018-10-12T14:46:45.022Z,3.43
2018-10-12T14:49:13.518Z,3.30
2018-10-12T14:51:42.024Z,2.87
2018-10-12T14:54:10.564Z,3.50
2018-10-12T14:56:39.231Z,2.43
2018-10-12T14:59:07.781Z,2.37
2018-10-12T15:01:36.153Z,2.73
2018-10-12T15:04:04.638Z,2.60
2018-10-12T15:06:33.116Z,3.30
2018-10-12T15:09:01.691Z,3.07
2018-10-12T15:11:30.663Z,3.00
2018-10-12T15:13:59.295Z,5.13
2018-10-12T15:16:27.788Z,5.60
2018-10-12T15:18:56.347Z,3.63
2018-10-12T15:21:25.038Z,3.47
2018-10-12T15:23:53.267Z,3.10
2018-10-12T15:26:21.733Z,3.00
2018-10-12T15:28:50.237Z,2.43
2018-10-12T15:31:18.698Z,2.20
2018-10-12T15:33:47.177Z,3.50
2018-10-12T15:36:15.641Z,2.60
2018-10-12T15:38:44.170Z,2.57
2018-10-12T15:41:12.621Z,2.20
2018-10-12T15:43:41.074Z,2.57
2018-10-12T15:46:09.520Z,3.33
2018-10-12T15:48:37.971Z,2.40
2018-10-12T15:51:06.457Z,2.87
2018-10-12T15:53:34.925Z,2.03
2018-10-12T15:56:04.627Z,3.37
2018-10-12T15:58:33.021Z,2.63
2018-10-12T16:01:01.512Z,4.83
2018-10-12T16:03:29.956Z,3.53
2018-10-12T16:05:59.393Z,2.10
2018-10-12T16:08:27.900Z,2.97
2018-10-12T16:10:56.385Z,2.50
2018-10-12T16:13:24.838Z,3.87
2018-10-12T16:15:54.277Z,4.07
2018-10-12T16:18:22.744Z,5.00
2018-10-12T16:20:51.162Z,4.07
2018-10-12T16:23:19.640Z,4.33
2018-10-12T16:26:02.539Z,4.50
2018-10-12T16:28:30.978Z,5.23
2018-10-12T16:30:59.696Z,2.90
2018-10-12T16:33:28.191Z,4.03
2018-10-12T16:35:57.701Z,3.43
2018-10-12T16:38:26.259Z,4.60
2018-10-12T16:40:54.647Z,6.80
2018-10-12T16:43:23.103Z,5.00
2018-10-12T16:45:52.238Z,3.87
2018-10-12T16:48:20.717Z,4.83
2018-10-12T16:50:49.201Z,3.90
2018-10-12T16:53:17.677Z,6.17
2018-10-12T16:55:46.163Z,6.80
2018-10-12T16:58:15.993Z,4.17
2018-10-12T17:00:45.356Z,4.40
2018-10-12T17:03:14.072Z,3.37
2018-10-12T17:05:42.512Z,5.73
2018-10-12T17:08:11.064Z,4.40
2018-10-12T17:10:39.530Z,4.57
2018-10-12T17:13:08.072Z,6.03
2018-10-12T17:15:36.522Z,2.93
2018-10-12T17:18:04.966Z,3.23
2018-10-12T17:20:33.417Z,2.20
2018-10-12T17:23:01.853Z,5.23
2018-10-12T17:25:31.296Z,4.10
2018-10-12T17:27:59.725Z,3.93
2018-10-12T17:30:28.210Z,3.03
2018-10-12T17:32:56.598Z,5.33
2018-10-12T17:35:25.016Z,3.13
2018-10-12T17:37:53.504Z,3.03
2018-10-12T17:40:21.988Z,2.60
2018-10-12T17:42:50.440Z,2.57
2018-10-12T17:45:18.881Z,3.67
2018-10-12T17:47:47.376Z,4.17
2018-10-12T17:50:15.845Z,2.50
2018-10-12T17:52:44.339Z,2.83
2018-10-12T17:55:12.843Z,4.73
2018-10-12T17:57:41.299Z,2.80
2018-10-12T18:00:10.554Z,3.37
2018-10-12T18:02:39.031Z,3.63
2018-10-12T18:05:08.200Z,3.77
2018-10-12T18:07:36.662Z,6.20
2018-10-12T18:10:05.690Z,3.13
2018-10-12T18:12:34.161Z,5.80
2018-10-12T18:15:02.638Z,4.37
2018-10-12T18:17:31.137Z,3.50
2018-10-12T18:19:59.600Z,5.47
2018-10-12T18:22:28.009Z,9.97
2018-10-12T18:24:56.470Z,4.30
2018-10-12T18:27:24.927Z,5.57
2018-10-12T18:29:53.366Z,5.27
2018-10-12T18:32:21.838Z,5.13
2018-10-12T18:34:50.294Z,4.90
2018-10-12T18:37:18.738Z,4.17
2018-10-12T18:39:47.194Z,3.10
2018-10-12T18:42:15.653Z,3.77
2018-10-12T18:44:44.085Z,3.03
2018-10-12T18:47:12.597Z,4.27
2018-10-12T18:49:41.037Z,4.77
2018-10-12T18:52:09.513Z,4.33
2018-10-12T18:54:37.981Z,3.63
2018-10-12T18:57:06.471Z,3.50
2018-10-12T18:59:34.926Z,4.47
2018-10-12T19:02:03.525Z,4.57
2018-10-12T19:04:32.402Z,3.30
2018-10-12T19:07:00.803Z,4.77
2018-10-12T19:09:29.313Z,3.97
2018-10-12T19:11:57.769Z,4.90
2018-10-12T19:14:26.310Z,3.70
2018-10-12T19:16:54.841Z,4.50
2018-10-12T19:19:23.312Z,2.90
2018-10-12T19:21:51.779Z,3.10
2018-10-12T19:24:21.302Z,4.07
2018-10-12T19:26:49.721Z,3.07
2018-10-12T19:29:18.198Z,3.67
2018-10-12T19:31:46.746Z,4.67
2018-10-12T19:34:15.163Z,4.10
2018-10-12T19:36:43.619Z,3.50
2018-10-12T19:39:12.103Z,3.50
2018-10-12T19:41:40.573Z,4.10
2018-10-12T19:44:09.717Z,3.17
2018-10-12T19:46:38.179Z,3.73
2018-10-12T19:49:07.565Z,2.47
2018-10-12T19:51:36.089Z,3.40
2018-10-12T19:54:04.577Z,2.50
2018-10-12T19:56:33.026Z,3.00
2018-10-12T19:59:01.465Z,3.87
2018-10-12T20:01:30.031Z,2.83
2018-10-12T20:03:58.728Z,2.77
2018-10-12T20:06:27.162Z,2.80
2018-10-12T20:08:55.677Z,3.63
2018-10-12T20:11:24.122Z,2.57
2018-10-12T20:13:52.588Z,2.43
2018-10-12T20:16:21.076Z,4.53
2018-10-12T20:18:49.525Z,2.77
2018-10-12T20:21:17.974Z,2.50
2018-10-12T20:23:46.498Z,3.10
2018-10-12T20:26:14.913Z,2.40
2018-10-12T20:28:43.367Z,2.93
2018-10-12T20:31:11.871Z,3.60
2018-10-12T20:33:40.329Z,2.47
2018-10-12T20:36:08.769Z,2.97
2018-10-12T20:38:37.361Z,2.97
2018-10-12T20:41:05.836Z,3.97
2018-10-12T20:43:34.304Z,2.87
2018-10-12T20:46:02.789Z,4.20
2018-10-12T20:48:31.242Z,2.60
2018-10-12T20:50:59.668Z,2.80
2018-10-12T20:53:28.125Z,2.70
2018-10-12T20:55:56.555Z,2.33
2018-10-12T20:58:24.959Z,3.23
2018-10-12T21:00:53.401Z,3.63
2018-10-12T21:03:21.809Z,2.23
2018-10-12T21:05:50.324Z,2.63
2018-10-12T21:08:18.748Z,2.80
2018-10-12T21:10:47.133Z,2.33
2018-10-12T21:13:16.158Z,2.63
2018-10-12T21:15:44.616Z,2.40
2018-10-12T21:18:13.044Z,3.17
2018-10-12T21:20:41.441Z,3.30
2018-10-12T21:23:09.885Z,2.67
2018-10-12T21:25:38.316Z,2.50
2018-10-12T21:28:06.809Z,2.10
2018-10-12T21:30:35.260Z,3.43
2018-10-12T21:33:03.732Z,2.60
2018-10-12T21:35:32.214Z,2.90
2018-10-12T21:38:00.700Z,2.73
2018-10-12T21:40:29.144Z,2.30
2018-10-12T21:42:57.616Z,2.60
2018-10-12T21:45:26.072Z,2.00
2018-10-12T21:47:54.503Z,2.90
2018-10-12T21:50:22.932Z,2.60
2018-10-12T21:52:51.397Z,2.40
2018-10-12T21:55:19.850Z,2.80
2018-10-12T21:57:48.338Z,2.50
2018-10-12T22:00:16.897Z,2.40
2018-10-12T22:02:45.335Z,2.30
2018-10-12T22:05:13.801Z,2.83
2018-10-12T22:07:42.380Z,2.20
2018-10-12T22:10:10.832Z,2.40
2018-10-12T22:12:39.315Z,2.60
2018-10-12T22:15:07.807Z,2.07
2018-10-12T22:17:36.263Z,1.90
2018-10-12T22:20:05.102Z,2.23
2018-10-12T22:22:33.547Z,2.33
2018-10-12T22:25:02.001Z,2.40
2018-10-12T22:27:30.484Z,2.13
2018-10-12T22:29:58.955Z,2.73
2018-10-12T22:32:27.408Z,2.30
2018-10-12T22:34:55.882Z,2.47
2018-10-12T22:37:24.405Z,2.23
2018-10-12T22:39:52.917Z,2.33
2018-10-12T22:42:21.421Z,3.57
2018-10-12T22:44:49.980Z,2.47
2018-10-12T22:47:18.451Z,2.20
2018-10-12T22:49:46.925Z,2.00
2018-10-12T22:52:15.401Z,2.20
2018-10-12T22:54:43.865Z,2.33
2018-10-12T22:57:12.304Z,2.50
2018-10-12T22:59:40.781Z,3.30
2018-10-12T23:02:10.245Z,2.43
2018-10-12T23:04:38.901Z,2.53
2018-10-12T23:07:07.437Z,2.27
2018-10-12T23:09:35.985Z,2.07
2018-10-12T23:12:04.437Z,2.30
2018-10-12T23:14:32.904Z,3.40
2018-10-12T23:17:01.362Z,2.20
2018-10-12T23:19:29.787Z,2.20
2018-10-12T23:21:58.276Z,2.53
2018-10-12T23:24:26.769Z,2.53
2018-10-12T23:26:55.261Z,2.47
2018-10-12T23:29:23.713Z,2.63
2018-10-12T23:31:52.164Z,2.90
2018-10-12T23:34:20.617Z,2.40
2018-10-12T23:36:49.091Z,2.70
2018-10-12T23:39:17.544Z,2.03
2018-10-12T23:41:46.009Z,3.07
2018-10-12T23:44:14.471Z,2.47
2018-10-12T23:46:42.921Z,2.40
2018-10-12T23:49:11.381Z,2.60
2018-10-12T23:51:39.857Z,2.47
2018-10-12T23:54:08.272Z,2.70
2018-10-12T23:56:36.722Z,2.70
2018-10-12T23:59:05.177Z,2.40
